Time;durP1;ratioP1;P1;durP2;ratioP2;P2;SDS_P1;SDS_P2;PMS_P1;PMS_P2;Temp;Humidity;BMP_temperature;BMP_pressure;BME280_temperature;BME280_humidity;BME280_pressure;Samples;Min_cycle;Max_cycle;Signal;HPM_P1;HPM_P2
2023/01/04 00:01:45;;;;;;;10.98;1.85;;;;;;;;;;5075142;28;20449;-59
2023/01/04 00:04:10;;;;;;;5.03;1.75;;;;;;;;;;5086992;28;20029;-60
2023/01/04 00:06:36;;;;;;;3.55;1.52;;;;;;;;;;5069954;28;20116;-62
2023/01/04 00:09:01;;;;;;;5.78;1.52;;;;;;;;;;5071977;28;20021;-60
2023/01/04 00:11:27;;;;;;;3.17;1.80;;;;;;;;;;5069369;28;20107;-60
2023/01/04 00:13:56;;;;;;;4.65;1.80;;;;;;;;;;5069313;28;20526;-58
2023/01/04 00:16:24;;;;;;;3.53;1.58;;;;;;;;;;5068500;28;20028;-60
2023/01/04 00:18:50;;;;;;;3.53;1.38;;;;;;;;;;5090849;28;20028;-59
2023/01/04 00:21:17;;;;;;;5.22;1.60;;;;;;;;;;5069062;28;20033;-61
2023/01/04 00:23:45;;;;;;;3.78;1.33;;;;;;;;;;5083116;28;20043;-59
2023/01/04 00:26:31;;;;;;;4.55;1.40;;;;;;;;;;5065582;28;20106;-60
2023/01/04 00:28:59;;;;;;;3.70;1.50;;;;;;;;;;5051662;28;20425;-61
2023/01/04 00:31:26;;;;;;;4.15;1.50;;;;;;;;;;5059822;28;20033;-59
2023/01/04 00:33:56;;;;;;;4.65;1.42;;;;;;;;;;5086933;28;20457;-58
2023/01/04 00:36:22;;;;;;;6.32;1.80;;;;;;;;;;5070967;28;20040;-60
2023/01/04 00:39:05;;;;;;;4.10;1.35;;;;;;;;;;5090422;28;20036;-59
2023/01/04 00:41:38;;;;;;;3.08;1.50;;;;;;;;;;5076550;28;20143;-58
2023/01/04 00:44:08;;;;;;;3.17;1.25;;;;;;;;;;5085846;28;20930;-60
2023/01/04 00:46:34;;;;;;;2.20;1.05;;;;;;;;;;5057209;28;20032;-58
2023/01/04 00:49:00;;;;;;;3.45;1.30;;;;;;;;;;5068548;28;20032;-61
2023/01/04 00:51:26;;;;;;;3.63;1.40;;;;;;;;;;5069159;28;20077;-61
2023/01/04 00:53:52;;;;;;;2.47;1.50;;;;;;;;;;5082123;28;20032;-61
2023/01/04 00:56:17;;;;;;;7.65;1.70;;;;;;;;;;5068451;28;20032;-62
2023/01/04 00:58:43;;;;;;;2.97;1.20;;;;;;;;;;5071135;28;20048;-59
2023/01/04 01:01:08;;;;;;;5.13;1.48;;;;;;;;;;5066223;28;20108;-61
2023/01/04 01:03:34;;;;;;;2.38;1.10;;;;;;;;;;5067641;28;20033;-59
2023/01/04 01:06:01;;;;;;;1.77;1.10;;;;;;;;;;5066811;28;20468;-61
2023/01/04 01:08:26;;;;;;;2.17;1.17;;;;;;;;;;5065194;28;20058;-58
2023/01/04 01:10:53;;;;;;;4.68;1.45;;;;;;;;;;5055051;28;20423;-59
2023/01/04 01:13:19;;;;;;;3.35;1.30;;;;;;;;;;5082566;28;20028;-59
2023/01/04 01:15:45;;;;;;;3.10;1.40;;;;;;;;;;5087449;28;20059;-61
2023/01/04 01:18:10;;;;;;;2.28;1.20;;;;;;;;;;5066422;28;20135;-60
2023/01/04 01:20:43;;;;;;;3.28;1.27;;;;;;;;;;5056568;28;20029;-61
2023/01/04 01:23:13;;;;;;;6.20;1.58;;;;;;;;;;5071969;28;20028;-62
2023/01/04 01:25:40;;;;;;;6.30;1.80;;;;;;;;;;5069010;28;20040;-61
2023/01/04 01:28:06;;;;;;;5.20;1.60;;;;;;;;;;5082507;28;20039;-61
2023/01/04 01:30:31;;;;;;;2.65;1.40;;;;;;;;;;5069287;28;20024;-60
2023/01/04 01:32:57;;;;;;;5.88;1.60;;;;;;;;;;5080153;28;20457;-61
2023/01/04 01:35:22;;;;;;;6.93;2.08;;;;;;;;;;5069665;28;20024;-62
2023/01/04 01:37:47;;;;;;;5.60;1.77;;;;;;;;;;5067321;28;20477;-60
2023/01/04 01:40:13;;;;;;;4.65;1.63;;;;;;;;;;5067060;28;20032;-61
2023/01/04 01:42:38;;;;;;;5.20;1.85;;;;;;;;;;5075031;28;20487;-61
2023/01/04 01:45:20;;;;;;;5.85;1.73;;;;;;;;;;5068963;28;20465;-61
2023/01/04 01:47:49;;;;;;;12.07;1.90;;;;;;;;;;5074441;28;20056;-61
2023/01/04 01:50:26;;;;;;;3.15;1.55;;;;;;;;;;5069350;28;20033;-61
2023/01/04 01:52:53;;;;;;;5.95;1.77;;;;;;;;;;5055514;28;20048;-61
2023/01/04 01:55:20;;;;;;;3.50;1.60;;;;;;;;;;5066117;28;20032;-61
2023/01/04 01:57:49;;;;;;;4.78;1.75;;;;;;;;;;5074767;28;20044;-61
2023/01/04 02:00:15;;;;;;;7.80;1.80;;;;;;;;;;5072627;28;20418;-61
2023/01/04 02:03:11;;;;;;;5.28;1.95;;;;;;;;;;5072924;28;20103;-61
2023/01/04 02:05:37;;;;;;;7.47;1.98;;;;;;;;;;5075114;28;20424;-61
2023/01/04 02:08:04;;;;;;;4.80;1.80;;;;;;;;;;5090336;28;20063;-61
2023/01/04 02:10:30;;;;;;;7.18;2.13;;;;;;;;;;5095259;28;20373;-61
2023/01/04 02:12:57;;;;;;;6.65;2.03;;;;;;;;;;5080691;28;20535;-61
2023/01/04 02:15:27;;;;;;;7.00;1.88;;;;;;;;;;5074048;28;20025;-61
2023/01/04 02:17:58;;;;;;;6.53;1.80;;;;;;;;;;5089128;28;20028;-61
2023/01/04 02:20:27;;;;;;;4.53;1.40;;;;;;;;;;5087842;28;20525;-61
2023/01/04 02:23:36;;;;;;;3.15;1.52;;;;;;;;;;5072360;28;20040;-60
2023/01/04 02:26:26;;;;;;;3.70;1.60;;;;;;;;;;5066300;28;20028;-62
2023/01/04 02:29:07;;;;;;;5.90;1.80;;;;;;;;;;5071442;28;20435;-61
2023/01/04 02:31:53;;;;;;;2.95;1.90;;;;;;;;;;5064569;28;20032;-60
2023/01/04 02:34:29;;;;;;;3.72;1.70;;;;;;;;;;5069972;28;20040;-61
2023/01/04 02:37:01;;;;;;;4.22;1.63;;;;;;;;;;5085159;28;20040;-61
2023/01/04 02:39:34;;;;;;;6.95;1.80;;;;;;;;;;5070915;28;20047;-61
2023/01/04 02:42:18;;;;;;;3.45;1.63;;;;;;;;;;5066308;28;20040;-59
2023/01/04 02:44:54;;;;;;;3.58;1.88;;;;;;;;;;5090370;28;20060;-61
2023/01/04 02:50:30;;;;;;;7.55;2.03;;;;;;;;;;5068601;28;20039;-61
2023/01/04 02:53:07;;;;;;;2.92;1.63;;;;;;;;;;5083608;28;20040;-61
2023/01/04 02:55:48;;;;;;;6.60;2.10;;;;;;;;;;5072312;28;20060;-61
2023/01/04 02:58:35;;;;;;;6.38;2.17;;;;;;;;;;5069904;28;20048;-61
2023/01/04 03:06:57;;;;;;;4.45;2.05;;;;;;;;;;5074774;28;20035;-61
2023/01/04 03:09:28;;;;;;;7.50;2.20;;;;;;;;;;5087554;28;20033;-61
2023/01/04 03:14:52;;;;;;;5.93;2.30;;;;;;;;;;5073008;28;20039;-61
2023/01/04 03:17:21;;;;;;;7.40;2.40;;;;;;;;;;5070535;28;20089;-61
2023/01/04 03:19:53;;;;;;;6.50;2.47;;;;;;;;;;5071683;28;20039;-61
2023/01/04 03:37:24;;;;;;;4.47;2.30;;;;;;;;;;5063926;28;20089;-61
2023/01/04 03:49:27;;;;;;;3.45;1.98;;;;;;;;;;5077785;28;20039;-61
2023/01/04 03:51:56;;;;;;;3.63;2.00;;;;;;;;;;5064488;28;20111;-60
2023/01/04 03:54:28;;;;;;;3.67;2.28;;;;;;;;;;5070071;28;20045;-61
2023/01/04 03:56:55;;;;;;;4.53;1.88;;;;;;;;;;5070596;28;20074;-61
2023/01/04 03:59:22;;;;;;;3.42;1.90;;;;;;;;;;5051667;28;20405;-61
2023/01/04 04:01:48;;;;;;;5.80;2.10;;;;;;;;;;5049576;28;20478;-61
2023/01/04 04:09:41;;;;;;;4.35;2.13;;;;;;;;;;5048462;28;20040;-61
2023/01/04 04:12:07;;;;;;;5.82;2.38;;;;;;;;;;5050712;28;20040;-62
2023/01/04 04:14:32;;;;;;;3.63;1.80;;;;;;;;;;5049662;28;20033;-62
2023/01/04 04:16:57;;;;;;;4.97;2.10;;;;;;;;;;5052275;28;20358;-62
2023/01/04 04:19:23;;;;;;;5.53;2.03;;;;;;;;;;5050059;28;20044;-61
2023/01/04 04:21:48;;;;;;;3.15;1.73;;;;;;;;;;5033941;28;20402;-61
2023/01/04 04:24:19;;;;;;;4.35;1.83;;;;;;;;;;5050387;28;20488;-62
2023/01/04 04:26:45;;;;;;;;;;;;;;;;;;5052900;28;20466;-61
2023/01/04 04:29:10;;;;;;;3.92;1.70;;;;;;;;;;5048793;28;20014;-62
2023/01/04 04:31:36;;;;;;;4.75;2.15;;;;;;;;;;5050334;28;20036;-62
2023/01/04 04:34:02;;;;;;;3.78;1.73;;;;;;;;;;5036696;28;20246;-62
2023/01/04 04:36:27;;;;;;;6.03;2.20;;;;;;;;;;5048863;28;20115;-61
2023/01/04 04:38:53;;;;;;;6.65;1.90;;;;;;;;;;5051270;28;20116;-61
2023/01/04 04:44:03;;;;;;;7.30;2.33;;;;;;;;;;5049083;28;20039;-61
2023/01/04 04:46:28;;;;;;;5.13;1.90;;;;;;;;;;5040219;28;20461;-61
2023/01/04 04:48:54;;;;;;;5.22;1.88;;;;;;;;;;5050812;28;20087;-61
2023/01/04 04:51:19;;;;;;;4.53;1.48;;;;;;;;;;5033599;28;20041;-61
2023/01/04 04:53:45;;;;;;;4.47;1.95;;;;;;;;;;5032285;28;20029;-62
2023/01/04 04:56:10;;;;;;;5.93;1.80;;;;;;;;;;5048070;28;20049;-62
2023/01/04 04:58:36;;;;;;;3.75;1.67;;;;;;;;;;5060676;28;20467;-62
2023/01/04 05:01:02;;;;;;;3.35;1.70;;;;;;;;;;5070543;28;20028;-61
2023/01/04 05:03:27;;;;;;;7.65;1.83;;;;;;;;;;5063405;28;20043;-61
2023/01/04 05:05:53;;;;;;;3.47;1.65;;;;;;;;;;5080402;28;20410;-60
2023/01/04 05:08:18;;;;;;;4.90;1.80;;;;;;;;;;5069761;28;20029;-61
2023/01/04 05:10:44;;;;;;;4.72;1.85;;;;;;;;;;5070947;28;20032;-61
2023/01/04 05:13:11;;;;;;;3.35;2.10;;;;;;;;;;5076207;28;20032;-61
2023/01/04 05:15:43;;;;;;;6.25;2.20;;;;;;;;;;5059934;28;20396;-61
2023/01/04 05:18:10;;;;;;;1.88;1.63;;;;;;;;;;5069098;28;20028;-61
2023/01/04 05:20:36;;;;;;;2.47;1.58;;;;;;;;;;5073452;28;20088;-61
2023/01/04 05:23:01;;;;;;;5.45;2.03;;;;;;;;;;5091681;28;20051;-61
2023/01/04 05:25:27;;;;;;;4.40;1.73;;;;;;;;;;5075827;28;20047;-61
2023/01/04 05:27:52;;;;;;;2.17;1.30;;;;;;;;;;5069979;28;20462;-61
2023/01/04 05:33:02;;;;;;;2.03;1.50;;;;;;;;;;5068366;28;20515;-61
2023/01/04 05:35:28;;;;;;;4.63;1.50;;;;;;;;;;5074248;28;20116;-61
2023/01/04 05:37:54;;;;;;;1.65;1.30;;;;;;;;;;5066234;28;20103;-61
2023/01/04 05:40:20;;;;;;;1.58;1.10;;;;;;;;;;5064850;28;20036;-61
2023/01/04 05:42:46;;;;;;;2.85;1.40;;;;;;;;;;5066196;28;20028;-61
2023/01/04 05:45:13;;;;;;;2.55;1.30;;;;;;;;;;5069909;28;20107;-61
2023/01/04 05:47:38;;;;;;;1.58;1.20;;;;;;;;;;5067801;28;20025;-61
2023/01/04 05:50:04;;;;;;;2.05;1.20;;;;;;;;;;5081125;28;20105;-61
2023/01/04 05:52:30;;;;;;;2.35;1.33;;;;;;;;;;5056307;28;21581;-62
2023/01/04 05:54:55;;;;;;;2.30;1.10;;;;;;;;;;5080828;28;20039;-61
2023/01/04 05:57:21;;;;;;;1.98;1.10;;;;;;;;;;5080591;28;20036;-61
2023/01/04 05:59:46;;;;;;;2.08;1.23;;;;;;;;;;5075740;28;20028;-61
2023/01/04 06:02:17;;;;;;;1.77;1.23;;;;;;;;;;5087404;28;20034;-61
2023/01/04 06:04:43;;;;;;;1.05;1.00;;;;;;;;;;5089156;28;20035;-62
2023/01/04 06:07:08;;;;;;;1.30;1.08;;;;;;;;;;5071201;28;20036;-62
2023/01/04 06:09:34;;;;;;;1.85;1.10;;;;;;;;;;5070651;28;20039;-61
2023/01/04 06:11:59;;;;;;;4.05;1.20;;;;;;;;;;5064431;28;20064;-62
2023/01/04 06:14:24;;;;;;;1.30;1.10;;;;;;;;;;5068641;28;20028;-62
2023/01/04 06:16:50;;;;;;;2.42;1.08;;;;;;;;;;5070058;28;20469;-62
2023/01/04 06:19:15;;;;;;;1.42;0.82;;;;;;;;;;5069476;28;20031;-62
2023/01/04 06:21:40;;;;;;;1.55;1.00;;;;;;;;;;5069204;28;20028;-63
2023/01/04 06:24:06;;;;;;;0.80;0.80;;;;;;;;;;5070980;28;20128;-65
2023/01/04 06:26:31;;;;;;;1.33;0.98;;;;;;;;;;5068965;28;20029;-63
2023/01/04 06:28:57;;;;;;;1.92;1.05;;;;;;;;;;5070068;28;20428;-62
2023/01/04 06:31:22;;;;;;;1.58;0.98;;;;;;;;;;5069671;28;20027;-63
2023/01/04 06:33:47;;;;;;;1.50;0.90;;;;;;;;;;5067306;28;20021;-62
2023/01/04 06:36:13;;;;;;;1.10;0.80;;;;;;;;;;5070461;28;20385;-65
2023/01/04 06:38:38;;;;;;;0.80;0.80;;;;;;;;;;5071496;28;20116;-61
2023/01/04 06:41:04;;;;;;;1.33;0.90;;;;;;;;;;5074137;28;20374;-61
2023/01/04 06:43:29;;;;;;;1.02;0.80;;;;;;;;;;5075612;28;20029;-62
2023/01/04 06:45:54;;;;;;;0.68;0.68;;;;;;;;;;5073945;28;20040;-63
2023/01/04 06:48:20;;;;;;;0.80;0.80;;;;;;;;;;5074093;28;20095;-64
2023/01/04 06:50:45;;;;;;;0.90;0.80;;;;;;;;;;5072587;28;20479;-63
2023/01/04 06:53:11;;;;;;;1.33;0.90;;;;;;;;;;5074507;28;20073;-63
2023/01/04 06:55:36;;;;;;;1.88;0.95;;;;;;;;;;5073562;28;20032;-64
2023/01/04 06:58:02;;;;;;;1.60;1.00;;;;;;;;;;5073118;28;20400;-63
2023/01/04 07:00:28;;;;;;;3.15;1.20;;;;;;;;;;5073656;28;20111;-62
2023/01/04 07:02:53;;;;;;;1.10;1.00;;;;;;;;;;5074325;28;20030;-61
2023/01/04 07:05:19;;;;;;;0.95;0.90;;;;;;;;;;5072455;28;20461;-62
2023/01/04 07:07:44;;;;;;;1.05;0.90;;;;;;;;;;5072365;28;20040;-61
2023/01/04 07:10:09;;;;;;;5.07;1.20;;;;;;;;;;5074393;28;20032;-61
2023/01/04 07:12:36;;;;;;;1.35;1.10;;;;;;;;;;5073221;28;20392;-59
2023/01/04 07:15:02;;;;;;;1.30;1.20;;;;;;;;;;5074224;28;20431;-60
2023/01/04 07:17:27;;;;;;;1.35;1.10;;;;;;;;;;5073322;28;20465;-61
2023/01/04 07:19:53;;;;;;;2.08;1.00;;;;;;;;;;5073192;28;20446;-62
2023/01/04 07:22:18;;;;;;;2.33;1.13;;;;;;;;;;5072547;28;20036;-68
2023/01/04 07:24:44;;;;;;;1.13;1.02;;;;;;;;;;5073039;28;20081;-61
2023/01/04 07:27:09;;;;;;;1.80;1.02;;;;;;;;;;5073959;28;20373;-61
2023/01/04 07:29:35;;;;;;;1.35;1.20;;;;;;;;;;5073201;28;20024;-61
2023/01/04 07:32:01;;;;;;;2.45;1.10;;;;;;;;;;5070688;28;20032;-63
2023/01/04 07:34:27;;;;;;;1.50;1.20;;;;;;;;;;5088245;28;20036;-61
2023/01/04 07:36:53;;;;;;;3.33;1.27;;;;;;;;;;5073907;28;20043;-61
2023/01/04 07:39:19;;;;;;;1.67;0.93;;;;;;;;;;5073737;28;20427;-61
2023/01/04 07:41:45;;;;;;;4.00;1.50;;;;;;;;;;5072006;28;20082;-61
2023/01/04 07:44:11;;;;;;;1.50;1.20;;;;;;;;;;5072312;28;20032;-61
2023/01/04 07:46:37;;;;;;;2.78;1.27;;;;;;;;;;5072756;28;20040;-64
2023/01/04 07:49:04;;;;;;;2.17;1.40;;;;;;;;;;5073627;28;20039;-63
2023/01/04 07:51:32;;;;;;;3.30;1.23;;;;;;;;;;5070538;28;20370;-63
2023/01/04 07:53:59;;;;;;;2.17;1.05;;;;;;;;;;5073378;28;20047;-63
2023/01/04 07:56:24;;;;;;;1.40;1.23;;;;;;;;;;5070682;28;20020;-64
2023/01/04 07:58:50;;;;;;;2.67;1.40;;;;;;;;;;5071017;28;20078;-63
2023/01/04 08:01:18;;;;;;;1.52;1.25;;;;;;;;;;5073110;28;20458;-63
2023/01/04 08:03:44;;;;;;;1.17;1.00;;;;;;;;;;5071021;28;20025;-63
2023/01/04 08:06:13;;;;;;;1.20;1.10;;;;;;;;;;5073209;28;20095;-62
2023/01/04 08:08:39;;;;;;;2.08;1.35;;;;;;;;;;5072391;28;20024;-63
2023/01/04 08:11:07;;;;;;;1.23;1.10;;;;;;;;;;5071856;28;20472;-62
2023/01/04 08:13:33;;;;;;;2.20;1.10;;;;;;;;;;5056585;28;20033;-63
2023/01/04 08:15:58;;;;;;;1.55;1.10;;;;;;;;;;5055210;28;20075;-63
2023/01/04 08:18:24;;;;;;;2.30;1.10;;;;;;;;;;5072319;28;20055;-64
2023/01/04 08:20:49;;;;;;;1.50;1.10;;;;;;;;;;5072382;28;20029;-63
2023/01/04 08:23:15;;;;;;;2.08;1.08;;;;;;;;;;5072788;28;20434;-62
2023/01/04 08:25:40;;;;;;;1.13;1.02;;;;;;;;;;5071897;28;20036;-62
2023/01/04 08:28:06;;;;;;;1.52;0.93;;;;;;;;;;5071507;28;20487;-61
2023/01/04 08:30:31;;;;;;;3.17;1.25;;;;;;;;;;5070540;28;20436;-62
2023/01/04 08:32:57;;;;;;;1.25;0.90;;;;;;;;;;5073053;28;20056;-61
2023/01/04 08:35:23;;;;;;;1.52;1.10;;;;;;;;;;5072469;28;20103;-61
2023/01/04 08:37:48;;;;;;;1.77;1.20;;;;;;;;;;5071585;28;20124;-61
2023/01/04 08:40:14;;;;;;;2.50;0.95;;;;;;;;;;5072507;28;20021;-62
2023/01/04 08:42:39;;;;;;;1.45;1.10;;;;;;;;;;5069358;28;20384;-62
2023/01/04 08:45:05;;;;;;;0.77;0.60;;;;;;;;;;5072431;28;20443;-62
2023/01/04 08:47:31;;;;;;;1.77;0.88;;;;;;;;;;5071518;28;20520;-62
2023/01/04 08:49:58;;;;;;;2.20;0.82;;;;;;;;;;5072394;28;20025;-63
2023/01/04 08:52:24;;;;;;;2.60;0.75;;;;;;;;;;5071031;28;20075;-64
2023/01/04 08:54:49;;;;;;;1.75;0.90;;;;;;;;;;5070288;28;20039;-64
2023/01/04 08:57:16;;;;;;;2.38;0.88;;;;;;;;;;5071115;28;20028;-64
2023/01/04 08:59:41;;;;;;;0.70;0.70;;;;;;;;;;5071009;28;20045;-63
2023/01/04 09:02:25;;;;;;;1.42;0.90;;;;;;;;;;5052038;28;20128;-64
2023/01/04 09:04:51;;;;;;;0.95;0.80;;;;;;;;;;5070653;28;20040;-64
2023/01/04 09:07:16;;;;;;;2.55;0.80;;;;;;;;;;5057708;28;20041;-64
2023/01/04 09:09:42;;;;;;;2.15;1.00;;;;;;;;;;5079546;28;20044;-62
2023/01/04 09:12:08;;;;;;;1.33;1.00;;;;;;;;;;5071791;28;20032;-62
2023/01/04 09:14:33;;;;;;;1.30;0.93;;;;;;;;;;5066533;28;20040;-62
2023/01/04 09:16:59;;;;;;;1.88;0.90;;;;;;;;;;5071479;28;20024;-61
2023/01/04 09:19:24;;;;;;;1.40;1.00;;;;;;;;;;5070065;28;20036;-62
2023/01/04 09:21:50;;;;;;;2.80;0.90;;;;;;;;;;5063310;28;20060;-62
2023/01/04 09:24:15;;;;;;;1.23;0.90;;;;;;;;;;5071200;28;20056;-62
2023/01/04 09:26:40;;;;;;;1.13;1.00;;;;;;;;;;5090910;28;20063;-61
2023/01/04 09:29:06;;;;;;;2.17;0.95;;;;;;;;;;5084330;28;20087;-62
2023/01/04 09:31:31;;;;;;;1.77;1.00;;;;;;;;;;5069641;28;20553;-64
2023/01/04 09:33:58;;;;;;;2.13;0.95;;;;;;;;;;5074376;28;20087;-63
2023/01/04 09:36:24;;;;;;;2.10;0.85;;;;;;;;;;5063841;28;20029;-62
2023/01/04 09:38:53;;;;;;;2.45;1.10;;;;;;;;;;5070694;28;20036;-62
2023/01/04 09:41:25;;;;;;;1.02;0.80;;;;;;;;;;5070234;28;20028;-63
2023/01/04 09:43:52;;;;;;;1.58;1.20;;;;;;;;;;5076820;28;20157;-62
2023/01/04 09:46:26;;;;;;;2.70;1.10;;;;;;;;;;5074958;28;20036;-62
2023/01/04 09:49:02;;;;;;;3.28;1.13;;;;;;;;;;5066972;28;20497;-62
2023/01/04 09:51:33;;;;;;;3.47;1.13;;;;;;;;;;5070629;28;20165;-62
2023/01/04 09:54:10;;;;;;;1.85;1.27;;;;;;;;;;5069948;28;20029;-63
2023/01/04 09:56:36;;;;;;;1.40;1.13;;;;;;;;;;5070639;28;20485;-61
2023/01/04 09:59:07;;;;;;;4.28;1.10;;;;;;;;;;5075711;28;20089;-61
2023/01/04 10:01:52;;;;;;;1.45;1.23;;;;;;;;;;5069395;28;20162;-62
2023/01/04 10:04:34;;;;;;;6.72;1.42;;;;;;;;;;5084002;28;20417;-62
2023/01/04 10:07:00;;;;;;;2.97;1.73;;;;;;;;;;5088784;28;20036;-62
2023/01/04 10:09:26;;;;;;;1.17;1.08;;;;;;;;;;5084799;28;20032;-62
2023/01/04 10:12:09;;;;;;;1.75;1.10;;;;;;;;;;5069449;28;20039;-65
2023/01/04 10:14:59;;;;;;;2.97;1.30;;;;;;;;;;5073172;28;20032;-62
2023/01/04 10:17:36;;;;;;;3.63;1.58;;;;;;;;;;5094693;28;20038;-62
2023/01/04 10:20:40;;;;;;;1.95;0.93;;;;;;;;;;5073665;28;20382;-62
2023/01/04 10:23:26;;;;;;;1.23;1.00;;;;;;;;;;5031123;28;20079;-62
2023/01/04 10:25:54;;;;;;;1.35;1.10;;;;;;;;;;5068809;28;20016;-61
2023/01/04 10:28:55;;;;;;;4.43;1.30;;;;;;;;;;5095189;28;20081;-63
2023/01/04 10:31:46;;;;;;;1.15;1.05;;;;;;;;;;5053218;28;20197;-63
2023/01/04 10:34:28;;;;;;;1.35;1.05;;;;;;;;;;5087895;28;20779;-62
2023/01/04 10:36:59;;;;;;;1.30;1.15;;;;;;;;;;5076501;28;20369;-63
2023/01/04 10:39:29;;;;;;;2.88;1.17;;;;;;;;;;5085890;28;20111;-63
2023/01/04 10:41:57;;;;;;;1.00;1.00;;;;;;;;;;5072634;28;20052;-62
2023/01/04 10:44:44;;;;;;;2.65;1.30;;;;;;;;;;5073781;28;20035;-62
2023/01/04 10:47:19;;;;;;;2.13;1.15;;;;;;;;;;5072546;28;20546;-62
2023/01/04 10:50:08;;;;;;;1.45;1.10;;;;;;;;;;5073243;28;20032;-62
2023/01/04 10:52:43;;;;;;;1.20;1.10;;;;;;;;;;5058892;28;20056;-63
2023/01/04 10:55:21;;;;;;;1.77;1.10;;;;;;;;;;5074279;28;20105;-62
2023/01/04 10:58:09;;;;;;;0.80;0.80;;;;;;;;;;5060454;28;20055;-63
2023/01/04 11:00:44;;;;;;;1.75;1.38;;;;;;;;;;5053475;28;20028;-62
2023/01/04 11:03:16;;;;;;;1.98;1.45;;;;;;;;;;5070891;28;20064;-62
2023/01/04 11:06:13;;;;;;;3.85;1.52;;;;;;;;;;5065865;28;20032;-63
2023/01/04 11:09:20;;;;;;;2.35;1.50;;;;;;;;;;5053197;28;20033;-63
2023/01/04 11:11:46;;;;;;;1.38;1.20;;;;;;;;;;5062298;28;20123;-63
2023/01/04 11:14:13;;;;;;;2.45;1.50;;;;;;;;;;5073037;28;20111;-63
2023/01/04 11:16:40;;;;;;;2.00;0.95;;;;;;;;;;5068624;28;20045;-63
2023/01/04 11:19:08;;;;;;;3.05;1.48;;;;;;;;;;5054162;28;20362;-63
2023/01/04 11:21:58;;;;;;;1.83;1.40;;;;;;;;;;5092110;28;20036;-62
2023/01/04 11:24:30;;;;;;;2.05;1.55;;;;;;;;;;5086897;28;20477;-63
2023/01/04 11:26:58;;;;;;;2.85;1.70;;;;;;;;;;5093174;28;20028;-63
2023/01/04 11:29:33;;;;;;;4.28;1.80;;;;;;;;;;5075265;28;20116;-63
2023/01/04 11:32:05;;;;;;;2.83;1.75;;;;;;;;;;5073411;28;20094;-62
2023/01/04 11:34:46;;;;;;;2.17;1.40;;;;;;;;;;5073149;28;20562;-62
2023/01/04 11:37:22;;;;;;;3.45;1.80;;;;;;;;;;5085283;28;20029;-61
2023/01/04 11:39:48;;;;;;;2.55;1.95;;;;;;;;;;5072365;28;20528;-62
2023/01/04 11:42:20;;;;;;;3.08;1.55;;;;;;;;;;5076814;28;20098;-62
2023/01/04 11:44:57;;;;;;;4.53;2.17;;;;;;;;;;5092721;28;20035;-62
2023/01/04 11:47:24;;;;;;;6.88;2.35;;;;;;;;;;5079230;28;20037;-62
2023/01/04 11:49:50;;;;;;;3.92;2.47;;;;;;;;;;5052237;28;20029;-62
2023/01/04 11:52:36;;;;;;;4.28;2.05;;;;;;;;;;5067150;28;20538;-62
2023/01/04 11:55:24;;;;;;;2.78;1.85;;;;;;;;;;5060822;28;20547;-63
2023/01/04 11:58:17;;;;;;;4.07;2.03;;;;;;;;;;5070870;28;20040;-62
2023/01/04 12:00:56;;;;;;;3.58;2.25;;;;;;;;;;5066416;28;20048;-63
2023/01/04 12:03:38;;;;;;;3.22;2.08;;;;;;;;;;5058137;28;20040;-62
2023/01/04 12:06:15;;;;;;;3.58;2.00;;;;;;;;;;5052585;28;20055;-62
2023/01/04 12:08:41;;;;;;;3.47;2.38;;;;;;;;;;5071632;28;20497;-61
2023/01/04 12:11:16;;;;;;;4.53;2.25;;;;;;;;;;5060581;28;20127;-61
2023/01/04 12:13:41;;;;;;;4.00;2.47;;;;;;;;;;5088816;28;20036;-62
2023/01/04 12:16:20;;;;;;;3.53;2.40;;;;;;;;;;5092619;28;20488;-62
2023/01/04 12:18:46;;;;;;;3.63;2.38;;;;;;;;;;5071710;28;20036;-61
2023/01/04 12:21:18;;;;;;;6.47;2.55;;;;;;;;;;5071012;28;20035;-61
2023/01/04 12:23:44;;;;;;;5.68;2.30;;;;;;;;;;5065332;28;20033;-60
2023/01/04 12:26:10;;;;;;;4.57;2.45;;;;;;;;;;5052490;28;20333;-61
2023/01/04 12:28:40;;;;;;;4.85;3.20;;;;;;;;;;5070398;28;20040;-61
2023/01/04 12:31:18;;;;;;;4.65;2.47;;;;;;;;;;5072541;28;20067;-61
2023/01/04 12:33:45;;;;;;;5.90;2.47;;;;;;;;;;5051291;28;20037;-61
2023/01/04 12:36:15;;;;;;;4.43;2.28;;;;;;;;;;5052112;28;20386;-62
2023/01/04 12:38:53;;;;;;;3.85;2.55;;;;;;;;;;5091378;28;20032;-61
2023/01/04 12:41:22;;;;;;;4.53;2.40;;;;;;;;;;5090569;28;20115;-61
2023/01/04 12:43:49;;;;;;;5.95;3.65;;;;;;;;;;5052088;28;20041;-62
2023/01/04 12:49:28;;;;;;;4.53;3.30;;;;;;;;;;5071986;28;20113;-61
2023/01/04 12:52:12;;;;;;;5.57;3.38;;;;;;;;;;5062300;28;20184;-60
2023/01/04 12:54:59;;;;;;;4.22;3.15;;;;;;;;;;5070342;28;20036;-61
2023/01/04 12:57:27;;;;;;;4.80;3.38;;;;;;;;;;5070835;28;20036;-62
2023/01/04 12:59:57;;;;;;;4.97;3.42;;;;;;;;;;5061670;28;20036;-61
2023/01/04 13:02:30;;;;;;;6.90;3.73;;;;;;;;;;5070777;28;20074;-62
2023/01/04 13:05:23;;;;;;;5.15;3.58;;;;;;;;;;5080928;28;20300;-61
2023/01/04 13:07:54;;;;;;;4.80;3.60;;;;;;;;;;5050793;28;20064;-61
2023/01/04 13:10:38;;;;;;;5.60;3.47;;;;;;;;;;5074768;28;20064;-61
2023/01/04 13:13:12;;;;;;;5.50;3.40;;;;;;;;;;5070369;28;20050;-61
2023/01/04 13:16:16;;;;;;;6.57;3.65;;;;;;;;;;5082228;28;20051;-62
2023/01/04 13:18:55;;;;;;;4.65;3.35;;;;;;;;;;5066425;28;20039;-62
2023/01/04 13:21:26;;;;;;;7.70;3.10;;;;;;;;;;5071900;28;20479;-61
2023/01/04 13:23:54;;;;;;;6.00;4.18;;;;;;;;;;5066573;28;20634;-61
2023/01/04 13:26:39;;;;;;;6.50;4.40;;;;;;;;;;5051836;28;20535;-61
2023/01/04 13:29:15;;;;;;;4.45;3.17;;;;;;;;;;5076264;28;20103;-61
2023/01/04 13:31:51;;;;;;;6.22;4.35;;;;;;;;;;5050735;28;20123;-61
2023/01/04 13:34:18;;;;;;;6.32;3.80;;;;;;;;;;5069564;28;20036;-61
2023/01/04 13:36:53;;;;;;;5.68;3.97;;;;;;;;;;5068229;28;20033;-60
2023/01/04 13:39:18;;;;;;;5.90;4.25;;;;;;;;;;5071127;28;20028;-62
2023/01/04 13:41:45;;;;;;;8.27;5.13;;;;;;;;;;5089839;28;20081;-61
2023/01/04 13:44:24;;;;;;;6.85;4.75;;;;;;;;;;5078462;28;20111;-61
2023/01/04 13:46:53;;;;;;;7.28;5.30;;;;;;;;;;5069193;28;20150;-61
2023/01/04 13:49:18;;;;;;;8.27;5.40;;;;;;;;;;5086762;28;20035;-61
2023/01/04 13:51:44;;;;;;;4.78;3.10;;;;;;;;;;5094861;28;20024;-61
2023/01/04 13:54:21;;;;;;;7.45;5.00;;;;;;;;;;5090227;28;20077;-61
2023/01/04 13:56:46;;;;;;;5.80;3.90;;;;;;;;;;5082538;28;20466;-62
2023/01/04 13:59:12;;;;;;;6.90;4.25;;;;;;;;;;5074755;28;20173;-61
2023/01/04 14:01:47;;;;;;;6.20;4.47;;;;;;;;;;5076254;28;20489;-62
2023/01/04 14:04:30;;;;;;;4.45;2.72;;;;;;;;;;5075308;28;20048;-63
2023/01/04 14:06:58;;;;;;;6.60;3.83;;;;;;;;;;5064621;28;20206;-60
2023/01/04 14:09:29;;;;;;;6.55;4.15;;;;;;;;;;5083187;28;20092;-60
2023/01/04 14:11:58;;;;;;;4.70;2.95;;;;;;;;;;5074149;28;20028;-60
2023/01/04 14:14:54;;;;;;;3.20;1.80;;;;;;;;;;5075320;28;20032;-60
2023/01/04 14:17:28;;;;;;;2.00;1.50;;;;;;;;;;5071045;28;20032;-60
2023/01/04 14:19:56;;;;;;;2.30;1.60;;;;;;;;;;5073176;28;20076;-60
2023/01/04 14:22:22;;;;;;;3.35;2.35;;;;;;;;;;5072841;28;20107;-60
2023/01/04 14:24:55;;;;;;;3.75;2.78;;;;;;;;;;5069120;28;20120;-62
2023/01/04 14:27:37;;;;;;;3.67;2.80;;;;;;;;;;5063574;28;20033;-61
2023/01/04 14:30:17;;;;;;;4.15;3.03;;;;;;;;;;5073401;28;20464;-60
2023/01/04 14:32:58;;;;;;;2.78;2.25;;;;;;;;;;5094324;28;20024;-61
2023/01/04 14:35:24;;;;;;;3.53;2.40;;;;;;;;;;5076026;28;20048;-61
2023/01/04 14:37:50;;;;;;;3.75;2.67;;;;;;;;;;5070630;28;20465;-60
2023/01/04 14:40:27;;;;;;;3.95;2.60;;;;;;;;;;5080632;28;20028;-61
2023/01/04 14:42:53;;;;;;;4.32;2.50;;;;;;;;;;5092278;28;20032;-61
2023/01/04 14:45:18;;;;;;;4.97;3.13;;;;;;;;;;5071975;28;20033;-61
2023/01/04 14:47:44;;;;;;;3.85;2.60;;;;;;;;;;5073509;28;20115;-61
2023/01/04 14:50:12;;;;;;;3.33;2.30;;;;;;;;;;5074610;28;20137;-61
2023/01/04 14:52:38;;;;;;;3.33;1.88;;;;;;;;;;5068059;28;20056;-62
2023/01/04 14:55:04;;;;;;;3.13;2.20;;;;;;;;;;5082371;28;20070;-60
2023/01/04 14:57:31;;;;;;;3.20;2.17;;;;;;;;;;5094234;28;20062;-60
2023/01/04 14:59:56;;;;;;;5.53;2.67;;;;;;;;;;5069468;28;20458;-61
2023/01/04 15:02:24;;;;;;;4.32;2.40;;;;;;;;;;5073840;28;20040;-61
2023/01/04 15:04:50;;;;;;;3.58;1.65;;;;;;;;;;5055706;28;20040;-60
2023/01/04 15:07:34;;;;;;;2.05;1.65;;;;;;;;;;5068173;28;20381;-60
2023/01/04 15:10:00;;;;;;;2.28;1.55;;;;;;;;;;5062386;28;20047;-61
2023/01/04 15:12:26;;;;;;;2.58;1.70;;;;;;;;;;5074153;28;20029;-61
2023/01/04 15:14:51;;;;;;;7.72;1.95;;;;;;;;;;5091097;28;20077;-61
2023/01/04 15:17:16;;;;;;;2.63;1.88;;;;;;;;;;5093698;28;20476;-60
2023/01/04 15:19:42;;;;;;;4.15;1.90;;;;;;;;;;5072041;28;20032;-60
2023/01/04 15:22:08;;;;;;;3.10;1.70;;;;;;;;;;5072635;28;20028;-61
2023/01/04 15:24:33;;;;;;;7.00;1.50;;;;;;;;;;5070834;28;20039;-60
2023/01/04 15:26:58;;;;;;;4.50;1.80;;;;;;;;;;5072766;28;20044;-61
2023/01/04 15:29:24;;;;;;;3.13;1.63;;;;;;;;;;5085224;28;20111;-61
2023/01/04 15:31:49;;;;;;;3.75;1.67;;;;;;;;;;5073920;28;20035;-60
2023/01/04 15:34:16;;;;;;;2.97;1.67;;;;;;;;;;5084656;28;20028;-60
2023/01/04 15:36:42;;;;;;;3.00;1.50;;;;;;;;;;5065404;28;20461;-61
2023/01/04 15:39:12;;;;;;;4.18;1.80;;;;;;;;;;5079843;28;20034;-60
2023/01/04 15:44:21;;;;;;;5.90;2.00;;;;;;;;;;5077971;28;20047;-60
2023/01/04 15:46:46;;;;;;;4.93;2.10;;;;;;;;;;5058928;28;20424;-60
2023/01/04 15:49:12;;;;;;;5.28;2.28;;;;;;;;;;5053613;28;20037;-60
2023/01/04 15:51:37;;;;;;;3.65;2.65;;;;;;;;;;5067301;28;20050;-61
2023/01/04 15:54:03;;;;;;;6.68;3.25;;;;;;;;;;5067925;28;20024;-62